sensor_id;sensor_type;location;lat;lon;timestamp;pressure;altitude;pressure_sealevel;temperature;humidity
65376;BME280;51976;47.332;9.404;2023-03-23T00:00:36;92340.47;;;8.53;60.48
65376;BME280;51976;47.332;9.404;2023-03-23T00:03:02;92337.94;;;8.66;59.84
65376;BME280;51976;47.332;9.404;2023-03-23T00:05:27;92328.69;;;8.48;59.96
65376;BME280;51976;47.332;9.404;2023-03-23T00:07:54;92331.00;;;8.60;59.97
65376;BME280;51976;47.332;9.404;2023-03-23T00:10:20;92324.78;;;8.65;59.63
65376;BME280;51976;47.332;9.404;2023-03-23T00:12:46;92313.84;;;8.56;59.42
65376;BME280;51976;47.332;9.404;2023-03-23T00:15:15;92330.50;;;8.58;59.75
65376;BME280;51976;47.332;9.404;2023-03-23T00:17:42;92323.38;;;8.43;60.11
65376;BME280;51976;47.332;9.404;2023-03-23T00:20:09;92331.00;;;8.21;60.86
65376;BME280;51976;47.332;9.404;2023-03-23T00:22:37;92335.81;;;8.24;60.92
65376;BME280;51976;47.332;9.404;2023-03-23T00:25:03;92330.59;;;8.09;61.20
65376;BME280;51976;47.332;9.404;2023-03-23T00:27:29;92331.94;;;8.06;61.49
65376;BME280;51976;47.332;9.404;2023-03-23T00:29:54;92301.47;;;7.87;61.41
65376;BME280;51976;47.332;9.404;2023-03-23T00:32:21;92306.44;;;8.04;61.07
65376;BME280;51976;47.332;9.404;2023-03-23T00:34:54;92319.97;;;8.28;60.61
65376;BME280;51976;47.332;9.404;2023-03-23T00:37:20;92318.06;;;8.33;60.05
65376;BME280;51976;47.332;9.404;2023-03-23T00:39:46;92324.34;;;8.53;59.59
65376;BME280;51976;47.332;9.404;2023-03-23T00:42:14;92325.50;;;8.46;59.98
65376;BME280;51976;47.332;9.404;2023-03-23T00:44:41;92290.69;;;8.26;60.22
65376;BME280;51976;47.332;9.404;2023-03-23T00:47:09;92316.97;;;8.39;60.33
65376;BME280;51976;47.332;9.404;2023-03-23T00:49:35;92326.13;;;8.28;60.54
65376;BME280;51976;47.332;9.404;2023-03-23T00:52:02;92316.63;;;8.46;60.25
65376;BME280;51976;47.332;9.404;2023-03-23T00:54:28;92264.63;;;7.98;60.36
65376;BME280;51976;47.332;9.404;2023-03-23T00:56:53;92325.50;;;8.46;60.02
65376;BME280;51976;47.332;9.404;2023-03-23T00:59:20;92308.63;;;8.41;60.06
65376;BME280;51976;47.332;9.404;2023-03-23T01:01:46;92322.28;;;8.44;60.17
65376;BME280;51976;47.332;9.404;2023-03-23T01:04:11;92314.44;;;8.48;60.17
65376;BME280;51976;47.332;9.404;2023-03-23T01:06:39;92322.31;;;8.39;60.14
65376;BME280;51976;47.332;9.404;2023-03-23T01:09:06;92305.72;;;8.32;60.22
65376;BME280;51976;47.332;9.404;2023-03-23T01:11:32;92310.78;;;8.39;60.05
65376;BME280;51976;47.332;9.404;2023-03-23T01:13:58;92282.59;;;7.97;60.58
65376;BME280;51976;47.332;9.404;2023-03-23T01:16:25;92322.13;;;8.26;60.41
65376;BME280;51976;47.332;9.404;2023-03-23T01:18:51;92325.56;;;8.36;60.29
65376;BME280;51976;47.332;9.404;2023-03-23T01:21:19;92309.97;;;8.38;60.23
65376;BME280;51976;47.332;9.404;2023-03-23T01:23:46;92307.34;;;8.33;60.23
65376;BME280;51976;47.332;9.404;2023-03-23T01:26:13;92318.31;;;8.32;60.42
65376;BME280;51976;47.332;9.404;2023-03-23T01:28:39;92317.09;;;8.19;60.62
65376;BME280;51976;47.332;9.404;2023-03-23T01:31:09;92310.13;;;8.18;60.58
65376;BME280;51976;47.332;9.404;2023-03-23T01:33:37;92298.69;;;8.41;60.05
65376;BME280;51976;47.332;9.404;2023-03-23T01:36:05;92303.28;;;8.31;60.35
65376;BME280;51976;47.332;9.404;2023-03-23T01:38:32;92281.25;;;8.00;61.04
65376;BME280;51976;47.332;9.404;2023-03-23T01:40:58;92270.50;;;8.00;60.98
65376;BME280;51976;47.332;9.404;2023-03-23T01:43:23;92285.09;;;7.89;61.22
65376;BME280;51976;47.332;9.404;2023-03-23T01:45:49;92296.22;;;8.11;61.06
65376;BME280;51976;47.332;9.404;2023-03-23T01:48:29;92292.59;;;8.26;60.78
65376;BME280;51976;47.332;9.404;2023-03-23T01:50:59;92296.06;;;8.26;60.68
65376;BME280;51976;47.332;9.404;2023-03-23T01:53:36;92295.97;;;8.07;60.88
65376;BME280;51976;47.332;9.404;2023-03-23T01:56:03;92298.78;;;8.21;60.71
65376;BME280;51976;47.332;9.404;2023-03-23T01:58:31;92302.34;;;8.17;61.12
65376;BME280;51976;47.332;9.404;2023-03-23T02:01:02;92300.25;;;8.08;61.20
65376;BME280;51976;47.332;9.404;2023-03-23T02:03:29;92305.91;;;8.07;61.49
65376;BME280;51976;47.332;9.404;2023-03-23T02:05:57;92296.16;;;8.16;61.30
65376;BME280;51976;47.332;9.404;2023-03-23T02:08:29;92290.19;;;8.24;61.06
65376;BME280;51976;47.332;9.404;2023-03-23T02:10:58;92293.03;;;8.04;61.46
65376;BME280;51976;47.332;9.404;2023-03-23T02:13:23;92294.59;;;8.10;61.14
65376;BME280;51976;47.332;9.404;2023-03-23T02:16:01;92303.00;;;7.98;61.57
65376;BME280;51976;47.332;9.404;2023-03-23T02:18:44;92296.50;;;8.09;61.33
65376;BME280;51976;47.332;9.404;2023-03-23T02:21:37;92284.94;;;8.09;61.16
65376;BME280;51976;47.332;9.404;2023-03-23T02:24:33;92301.44;;;8.26;61.03
65376;BME280;51976;47.332;9.404;2023-03-23T02:27:08;92307.97;;;8.20;61.22
65376;BME280;51976;47.332;9.404;2023-03-23T02:29:58;92308.50;;;8.17;61.10
65376;BME280;51976;47.332;9.404;2023-03-23T02:35:34;92313.53;;;8.24;61.29
65376;BME280;51976;47.332;9.404;2023-03-23T02:38:03;92307.78;;;8.06;61.35
65376;BME280;51976;47.332;9.404;2023-03-23T02:40:48;92311.47;;;8.15;61.74
65376;BME280;51976;47.332;9.404;2023-03-23T02:43:17;92318.44;;;8.17;61.80
65376;BME280;51976;47.332;9.404;2023-03-23T02:45:46;92318.53;;;8.01;62.16
65376;BME280;51976;47.332;9.404;2023-03-23T02:48:13;92315.31;;;8.04;62.18
65376;BME280;51976;47.332;9.404;2023-03-23T02:50:43;92318.03;;;7.94;62.34
65376;BME280;51976;47.332;9.404;2023-03-23T02:53:13;92322.63;;;7.94;62.17
65376;BME280;51976;47.332;9.404;2023-03-23T02:55:42;92314.25;;;8.00;62.15
65376;BME280;51976;47.332;9.404;2023-03-23T02:58:10;92310.44;;;8.11;61.78
65376;BME280;51976;47.332;9.404;2023-03-23T03:00:37;92312.91;;;8.03;62.02
65376;BME280;51976;47.332;9.404;2023-03-23T03:03:03;92289.56;;;7.98;62.20
65376;BME280;51976;47.332;9.404;2023-03-23T03:05:52;92296.09;;;7.92;62.54
65376;BME280;51976;47.332;9.404;2023-03-23T03:08:38;92294.25;;;7.82;62.64
65376;BME280;51976;47.332;9.404;2023-03-23T03:11:08;92310.44;;;8.11;61.96
65376;BME280;51976;47.332;9.404;2023-03-23T03:13:56;92312.84;;;8.13;62.15
65376;BME280;51976;47.332;9.404;2023-03-23T03:16:42;92316.28;;;8.19;61.90
65376;BME280;51976;47.332;9.404;2023-03-23T03:19:18;92324.84;;;8.21;61.99
65376;BME280;51976;47.332;9.404;2023-03-23T03:21:47;92321.88;;;8.22;61.95
65376;BME280;51976;47.332;9.404;2023-03-23T03:24:15;92311.19;;;8.17;61.77
65376;BME280;51976;47.332;9.404;2023-03-23T03:26:45;92328.25;;;8.36;61.59
65376;BME280;51976;47.332;9.404;2023-03-23T03:29:14;92326.16;;;8.23;61.65
65376;BME280;51976;47.332;9.404;2023-03-23T03:31:43;92322.69;;;8.23;61.48
65376;BME280;51976;47.332;9.404;2023-03-23T03:34:13;92322.09;;;8.31;61.16
65376;BME280;51976;47.332;9.404;2023-03-23T03:36:43;92328.38;;;8.16;61.53
65376;BME280;51976;47.332;9.404;2023-03-23T03:39:11;92335.97;;;8.04;62.59
65376;BME280;51976;47.332;9.404;2023-03-23T03:41:38;92324.44;;;8.03;62.81
65376;BME280;51976;47.332;9.404;2023-03-23T03:44:04;92331.91;;;8.11;62.51
65376;BME280;51976;47.332;9.404;2023-03-23T03:46:31;92337.13;;;8.32;61.22
65376;BME280;51976;47.332;9.404;2023-03-23T03:48:57;92309.66;;;8.45;59.15
65376;BME280;51976;47.332;9.404;2023-03-23T03:51:24;92317.44;;;8.46;59.82
65376;BME280;51976;47.332;9.404;2023-03-23T03:53:50;92302.22;;;8.66;59.86
65376;BME280;51976;47.332;9.404;2023-03-23T03:56:15;92279.25;;;8.49;59.45
65376;BME280;51976;47.332;9.404;2023-03-23T03:58:41;92299.59;;;8.85;58.81
65376;BME280;51976;47.332;9.404;2023-03-23T04:01:10;92288.88;;;8.56;60.44
65376;BME280;51976;47.332;9.404;2023-03-23T04:03:36;92276.84;;;8.48;59.99
65376;BME280;51976;47.332;9.404;2023-03-23T04:06:02;92299.31;;;8.86;58.60
65376;BME280;51976;47.332;9.404;2023-03-23T04:08:28;92270.56;;;8.87;58.85
65376;BME280;51976;47.332;9.404;2023-03-23T04:10:54;92282.56;;;8.70;59.86
65376;BME280;51976;47.332;9.404;2023-03-23T04:13:20;92269.09;;;8.46;61.00
65376;BME280;51976;47.332;9.404;2023-03-23T04:15:46;92274.41;;;8.75;60.02
65376;BME280;51976;47.332;9.404;2023-03-23T04:18:12;92281.72;;;8.99;59.37
65376;BME280;51976;47.332;9.404;2023-03-23T04:20:40;92284.56;;;9.07;59.06
65376;BME280;51976;47.332;9.404;2023-03-23T04:23:05;92283.66;;;9.17;58.26
65376;BME280;51976;47.332;9.404;2023-03-23T04:25:31;92248.00;;;9.06;57.66
65376;BME280;51976;47.332;9.404;2023-03-23T04:27:58;92282.16;;;9.30;58.41
65376;BME280;51976;47.332;9.404;2023-03-23T04:30:26;92261.50;;;9.25;57.55
65376;BME280;51976;47.332;9.404;2023-03-23T04:32:53;92262.56;;;9.48;56.89
65376;BME280;51976;47.332;9.404;2023-03-23T04:35:21;92225.78;;;9.01;58.68
65376;BME280;51976;47.332;9.404;2023-03-23T04:37:48;92261.06;;;9.37;57.66
65376;BME280;51976;47.332;9.404;2023-03-23T04:40:14;92241.31;;;9.28;57.86
65376;BME280;51976;47.332;9.404;2023-03-23T04:42:43;92266.00;;;9.54;56.93
65376;BME280;51976;47.332;9.404;2023-03-23T04:45:17;92249.84;;;9.54;56.78
65376;BME280;51976;47.332;9.404;2023-03-23T04:47:48;92260.84;;;9.57;57.46
65376;BME280;51976;47.332;9.404;2023-03-23T04:50:20;92263.53;;;9.57;57.36
65376;BME280;51976;47.332;9.404;2023-03-23T04:52:47;92258.34;;;9.61;56.82
65376;BME280;51976;47.332;9.404;2023-03-23T04:55:13;92260.97;;;9.66;56.72
65376;BME280;51976;47.332;9.404;2023-03-23T04:57:39;92246.88;;;9.55;57.05
65376;BME280;51976;47.332;9.404;2023-03-23T05:00:06;92258.91;;;9.58;57.81
65376;BME280;51976;47.332;9.404;2023-03-23T05:02:37;92262.34;;;9.63;57.12
65376;BME280;51976;47.332;9.404;2023-03-23T05:05:05;92254.13;;;9.73;56.23
65376;BME280;51976;47.332;9.404;2023-03-23T05:07:31;92265.63;;;9.79;57.15
65376;BME280;51976;47.332;9.404;2023-03-23T05:09:57;92269.34;;;9.83;57.17
65376;BME280;51976;47.332;9.404;2023-03-23T05:12:22;92270.16;;;9.83;57.22
65376;BME280;51976;47.332;9.404;2023-03-23T05:14:48;92263.47;;;9.81;57.23
65376;BME280;51976;47.332;9.404;2023-03-23T05:17:14;92233.25;;;9.65;56.77
65376;BME280;51976;47.332;9.404;2023-03-23T05:19:42;92255.50;;;9.90;57.01
65376;BME280;51976;47.332;9.404;2023-03-23T05:22:09;92230.56;;;9.46;58.03
65376;BME280;51976;47.332;9.404;2023-03-23T05:24:37;92255.66;;;9.61;57.87
65376;BME280;51976;47.332;9.404;2023-03-23T05:27:03;92246.19;;;9.63;57.54
65376;BME280;51976;47.332;9.404;2023-03-23T05:29:29;92260.03;;;9.75;57.50
65376;BME280;51976;47.332;9.404;2023-03-23T05:31:56;92253.13;;;9.69;57.88
65376;BME280;51976;47.332;9.404;2023-03-23T05:34:25;92254.34;;;9.58;58.48
65376;BME280;51976;47.332;9.404;2023-03-23T05:36:51;92254.72;;;9.52;59.07
65376;BME280;51976;47.332;9.404;2023-03-23T05:39:18;92255.00;;;9.50;59.35
65376;BME280;51976;47.332;9.404;2023-03-23T05:41:44;92254.03;;;9.60;59.42
65376;BME280;51976;47.332;9.404;2023-03-23T05:44:09;92241.63;;;9.45;59.81
65376;BME280;51976;47.332;9.404;2023-03-23T05:46:34;92234.69;;;9.39;59.79
65376;BME280;51976;47.332;9.404;2023-03-23T05:49:00;92246.94;;;9.50;60.19
65376;BME280;51976;47.332;9.404;2023-03-23T05:51:25;92249.28;;;9.57;59.84
65376;BME280;51976;47.332;9.404;2023-03-23T05:53:51;92247.72;;;9.69;59.12
65376;BME280;51976;47.332;9.404;2023-03-23T05:56:17;92223.81;;;9.49;59.44
65376;BME280;51976;47.332;9.404;2023-03-23T05:58:43;92248.31;;;9.66;59.45
65376;BME280;51976;47.332;9.404;2023-03-23T06:01:09;92255.75;;;9.74;59.68
65376;BME280;51976;47.332;9.404;2023-03-23T06:03:37;92252.09;;;9.65;59.99
65376;BME280;51976;47.332;9.404;2023-03-23T06:06:03;92249.34;;;9.70;59.61
65376;BME280;51976;47.332;9.404;2023-03-23T06:08:29;92252.53;;;9.72;59.72
65376;BME280;51976;47.332;9.404;2023-03-23T06:10:54;92246.53;;;10.64;63.83
65376;BME280;51976;47.332;9.404;2023-03-23T06:13:20;92232.56;;;11.03;61.01
65376;BME280;51976;47.332;9.404;2023-03-23T06:15:46;92225.88;;;11.14;59.47
65376;BME280;51976;47.332;9.404;2023-03-23T06:18:12;92190.91;;;10.68;57.01
65376;BME280;51976;47.332;9.404;2023-03-23T06:20:38;92224.88;;;11.24;61.72
65376;BME280;51976;47.332;9.404;2023-03-23T06:23:04;92229.22;;;11.61;60.52
65376;BME280;51976;47.332;9.404;2023-03-23T06:25:31;92223.69;;;10.89;57.07
65376;BME280;51976;47.332;9.404;2023-03-23T06:27:57;92238.19;;;10.47;58.29
65376;BME280;51976;47.332;9.404;2023-03-23T06:30:22;92240.66;;;10.43;58.67
65376;BME280;51976;47.332;9.404;2023-03-23T06:32:48;92206.91;;;10.00;59.03
65376;BME280;51976;47.332;9.404;2023-03-23T06:35:14;92224.78;;;9.91;58.11
65376;BME280;51976;47.332;9.404;2023-03-23T06:37:40;92237.47;;;10.09;57.86
65376;BME280;51976;47.332;9.404;2023-03-23T06:40:06;92209.22;;;9.88;58.16
65376;BME280;51976;47.332;9.404;2023-03-23T06:42:32;92237.63;;;10.12;58.45
65376;BME280;51976;47.332;9.404;2023-03-23T06:44:58;92221.97;;;10.01;58.60
65376;BME280;51976;47.332;9.404;2023-03-23T06:47:26;92239.03;;;10.29;58.28
65376;BME280;51976;47.332;9.404;2023-03-23T06:49:51;92232.81;;;9.96;59.36
65376;BME280;51976;47.332;9.404;2023-03-23T06:52:17;92245.94;;;10.16;58.98
65376;BME280;51976;47.332;9.404;2023-03-23T06:54:43;92241.75;;;10.10;59.45
65376;BME280;51976;47.332;9.404;2023-03-23T06:57:08;92240.81;;;10.20;59.59
65376;BME280;51976;47.332;9.404;2023-03-23T06:59:34;92247.19;;;10.24;59.46
65376;BME280;51976;47.332;9.404;2023-03-23T07:01:59;92242.03;;;10.27;59.25
65376;BME280;51976;47.332;9.404;2023-03-23T07:04:25;92243.03;;;10.31;59.27
65376;BME280;51976;47.332;9.404;2023-03-23T07:06:51;92235.03;;;10.26;59.22
65376;BME280;51976;47.332;9.404;2023-03-23T07:09:16;92241.22;;;10.27;59.09
65376;BME280;51976;47.332;9.404;2023-03-23T07:11:42;92235.84;;;10.27;59.14
65376;BME280;51976;47.332;9.404;2023-03-23T07:14:09;92247.41;;;10.27;59.64
65376;BME280;51976;47.332;9.404;2023-03-23T07:16:34;92251.56;;;10.38;59.59
65376;BME280;51976;47.332;9.404;2023-03-23T07:19:00;92235.47;;;10.33;59.35
65376;BME280;51976;47.332;9.404;2023-03-23T07:21:26;92252.78;;;10.60;59.02
65376;BME280;51976;47.332;9.404;2023-03-23T07:23:51;92251.91;;;10.64;59.00
65376;BME280;51976;47.332;9.404;2023-03-23T07:26:17;92261.19;;;10.58;59.08
65376;BME280;51976;47.332;9.404;2023-03-23T07:28:43;92245.22;;;10.62;58.92
65376;BME280;51976;47.332;9.404;2023-03-23T07:31:08;92261.53;;;10.84;58.79
65376;BME280;51976;47.332;9.404;2023-03-23T07:33:35;92252.63;;;10.83;57.81
65376;BME280;51976;47.332;9.404;2023-03-23T07:36:01;92260.34;;;11.04;58.02
65376;BME280;51976;47.332;9.404;2023-03-23T07:38:29;92266.94;;;11.11;57.71
65376;BME280;51976;47.332;9.404;2023-03-23T07:40:55;92246.97;;;11.12;57.63
65376;BME280;51976;47.332;9.404;2023-03-23T07:43:21;92258.75;;;11.16;57.53
65376;BME280;51976;47.332;9.404;2023-03-23T07:45:47;92264.13;;;11.30;57.51
65376;BME280;51976;47.332;9.404;2023-03-23T07:48:13;92266.94;;;11.25;57.47
65376;BME280;51976;47.332;9.404;2023-03-23T07:50:38;92279.63;;;11.25;57.17
65376;BME280;51976;47.332;9.404;2023-03-23T07:53:03;92274.34;;;11.19;57.41
65376;BME280;51976;47.332;9.404;2023-03-23T07:55:29;92261.97;;;11.18;56.83
65376;BME280;51976;47.332;9.404;2023-03-23T07:57:55;92172.31;;;10.67;56.53
65376;BME280;51976;47.332;9.404;2023-03-23T08:00:21;92284.03;;;11.48;56.62
65376;BME280;51976;47.332;9.404;2023-03-23T08:02:51;92282.59;;;11.50;56.49
65376;BME280;51976;47.332;9.404;2023-03-23T08:05:17;92279.41;;;11.62;56.16
65376;BME280;51976;47.332;9.404;2023-03-23T08:07:44;92286.72;;;11.75;55.54
65376;BME280;51976;47.332;9.404;2023-03-23T08:10:11;92273.31;;;11.70;55.82
65376;BME280;51976;47.332;9.404;2023-03-23T08:12:41;92279.09;;;11.91;55.10
65376;BME280;51976;47.332;9.404;2023-03-23T08:15:09;92273.19;;;11.89;54.64
65376;BME280;51976;47.332;9.404;2023-03-23T08:17:37;92284.34;;;12.10;54.57
65376;BME280;51976;47.332;9.404;2023-03-23T08:20:04;92291.28;;;12.02;55.10
65376;BME280;51976;47.332;9.404;2023-03-23T08:22:36;92303.25;;;12.10;55.48
65376;BME280;51976;47.332;9.404;2023-03-23T08:25:04;92293.81;;;12.21;55.02
65376;BME280;51976;47.332;9.404;2023-03-23T08:27:31;92278.78;;;12.29;54.97
65376;BME280;51976;47.332;9.404;2023-03-23T08:29:56;92306.31;;;12.53;55.60
65376;BME280;51976;47.332;9.404;2023-03-23T08:32:22;92308.41;;;12.56;56.18
65376;BME280;51976;47.332;9.404;2023-03-23T08:34:48;92296.41;;;12.71;55.36
65376;BME280;51976;47.332;9.404;2023-03-23T08:37:14;92291.63;;;12.68;54.62
65376;BME280;51976;47.332;9.404;2023-03-23T08:39:39;92285.84;;;12.83;54.42
65376;BME280;51976;47.332;9.404;2023-03-23T08:42:05;92301.59;;;13.12;53.69
65376;BME280;51976;47.332;9.404;2023-03-23T08:44:30;92307.81;;;13.12;53.23
65376;BME280;51976;47.332;9.404;2023-03-23T08:46:56;92271.59;;;13.00;52.72
65376;BME280;51976;47.332;9.404;2023-03-23T08:49:22;92265.75;;;13.06;51.81
65376;BME280;51976;47.332;9.404;2023-03-23T08:51:48;92303.69;;;13.46;51.37
65376;BME280;51976;47.332;9.404;2023-03-23T08:54:13;92305.75;;;13.49;50.94
65376;BME280;51976;47.332;9.404;2023-03-23T08:56:39;92302.25;;;13.48;51.30
65376;BME280;51976;47.332;9.404;2023-03-23T08:59:04;92303.59;;;13.60;50.96
65376;BME280;51976;47.332;9.404;2023-03-23T09:01:29;92310.59;;;13.69;50.57
65376;BME280;51976;47.332;9.404;2023-03-23T09:03:55;92306.84;;;13.39;50.57
65376;BME280;51976;47.332;9.404;2023-03-23T09:06:21;92317.69;;;13.39;50.63
65376;BME280;51976;47.332;9.404;2023-03-23T09:08:47;92300.66;;;13.39;49.20
65376;BME280;51976;47.332;9.404;2023-03-23T09:11:12;92315.84;;;13.57;49.49
65376;BME280;51976;47.332;9.404;2023-03-23T09:13:39;92310.97;;;13.76;49.02
65376;BME280;51976;47.332;9.404;2023-03-23T09:16:06;92313.88;;;13.88;48.58
65376;BME280;51976;47.332;9.404;2023-03-23T09:18:32;92308.91;;;13.82;49.86
65376;BME280;51976;47.332;9.404;2023-03-23T09:20:58;92315.88;;;13.66;49.70
65376;BME280;51976;47.332;9.404;2023-03-23T09:23:23;92308.97;;;13.51;50.57
65376;BME280;51976;47.332;9.404;2023-03-23T09:25:50;92309.56;;;13.39;49.63
65376;BME280;51976;47.332;9.404;2023-03-23T09:28:16;92327.56;;;13.44;49.14
65376;BME280;51976;47.332;9.404;2023-03-23T09:30:42;92322.63;;;13.46;49.73
65376;BME280;51976;47.332;9.404;2023-03-23T09:33:09;92331.41;;;13.51;49.44
65376;BME280;51976;47.332;9.404;2023-03-23T09:35:35;92341.75;;;13.49;49.15
65376;BME280;51976;47.332;9.404;2023-03-23T09:38:03;92328.16;;;13.32;49.54
65376;BME280;51976;47.332;9.404;2023-03-23T09:40:50;92348.28;;;13.40;49.56
65376;BME280;51976;47.332;9.404;2023-03-23T09:43:25;92351.09;;;13.35;49.62
65376;BME280;51976;47.332;9.404;2023-03-23T09:46:19;92354.59;;;13.35;49.52
65376;BME280;51976;47.332;9.404;2023-03-23T09:49:01;92328.47;;;13.31;49.89
65376;BME280;51976;47.332;9.404;2023-03-23T09:51:42;92353.25;;;13.55;49.65
65376;BME280;51976;47.332;9.404;2023-03-23T09:54:14;92351.53;;;13.59;49.51
65376;BME280;51976;47.332;9.404;2023-03-23T09:56:43;92361.06;;;13.57;48.00
65376;BME280;51976;47.332;9.404;2023-03-23T09:59:38;92349.00;;;13.63;48.10
65376;BME280;51976;47.332;9.404;2023-03-23T10:02:19;92372.78;;;13.74;47.94
65376;BME280;51976;47.332;9.404;2023-03-23T10:04:51;92369.34;;;13.91;48.14
65376;BME280;51976;47.332;9.404;2023-03-23T10:07:26;92375.88;;;13.99;47.88
65376;BME280;51976;47.332;9.404;2023-03-23T10:09:56;92362.53;;;14.11;47.15
65376;BME280;51976;47.332;9.404;2023-03-23T10:12:33;92365.59;;;14.18;46.68
65376;BME280;51976;47.332;9.404;2023-03-23T10:15:14;92345.78;;;14.09;47.03
65376;BME280;51976;47.332;9.404;2023-03-23T10:17:49;92349.50;;;14.21;47.01
65376;BME280;51976;47.332;9.404;2023-03-23T10:20:32;92364.31;;;14.24;47.41
65376;BME280;51976;47.332;9.404;2023-03-23T10:23:09;92369.09;;;14.27;47.55
65376;BME280;51976;47.332;9.404;2023-03-23T10:25:41;92363.91;;;14.48;47.82
65376;BME280;51976;47.332;9.404;2023-03-23T10:28:21;92368.41;;;14.70;46.80
65376;BME280;51976;47.332;9.404;2023-03-23T10:30:52;92370.28;;;14.78;44.82
65376;BME280;51976;47.332;9.404;2023-03-23T10:33:42;92368.06;;;14.80;44.97
65376;BME280;51976;47.332;9.404;2023-03-23T10:36:27;92339.81;;;14.64;45.02
65376;BME280;51976;47.332;9.404;2023-03-23T10:39:02;92369.03;;;14.75;45.09
65376;BME280;51976;47.332;9.404;2023-03-23T10:41:29;92373.03;;;14.69;45.56
65376;BME280;51976;47.332;9.404;2023-03-23T10:43:55;92380.22;;;14.74;44.63
65376;BME280;51976;47.332;9.404;2023-03-23T10:46:29;92375.44;;;14.71;44.13
65376;BME280;51976;47.332;9.404;2023-03-23T10:48:58;92375.91;;;14.90;43.91
65376;BME280;51976;47.332;9.404;2023-03-23T10:51:31;92379.25;;;14.96;43.75
65376;BME280;51976;47.332;9.404;2023-03-23T10:54:00;92376.53;;;15.04;43.01
65376;BME280;51976;47.332;9.404;2023-03-23T10:56:34;92375.72;;;15.12;42.97
65376;BME280;51976;47.332;9.404;2023-03-23T10:59:11;92367.13;;;15.02;42.38
65376;BME280;51976;47.332;9.404;2023-03-23T11:01:37;92371.88;;;15.05;42.44
65376;BME280;51976;47.332;9.404;2023-03-23T11:04:03;92359.09;;;15.05;42.55
65376;BME280;51976;47.332;9.404;2023-03-23T11:06:35;92351.91;;;15.09;42.08
65376;BME280;51976;47.332;9.404;2023-03-23T11:09:19;92365.50;;;15.18;42.18
65376;BME280;51976;47.332;9.404;2023-03-23T11:11:52;92363.06;;;15.34;41.20
65376;BME280;51976;47.332;9.404;2023-03-23T11:14:33;92355.38;;;15.36;41.71
65376;BME280;51976;47.332;9.404;2023-03-23T11:17:04;92367.81;;;15.54;42.52
65376;BME280;51976;47.332;9.404;2023-03-23T11:19:34;92361.41;;;15.67;41.76
65376;BME280;51976;47.332;9.404;2023-03-23T11:22:15;92367.63;;;15.68;40.63
65376;BME280;51976;47.332;9.404;2023-03-23T11:24:46;92364.75;;;15.73;39.99
65376;BME280;51976;47.332;9.404;2023-03-23T11:27:14;92357.06;;;15.75;39.69
65376;BME280;51976;47.332;9.404;2023-03-23T11:29:52;92367.25;;;15.86;39.65
65376;BME280;51976;47.332;9.404;2023-03-23T11:32:23;92353.06;;;15.72;40.07
65376;BME280;51976;47.332;9.404;2023-03-23T11:34:54;92346.06;;;15.63;40.20
65376;BME280;51976;47.332;9.404;2023-03-23T11:40:16;92349.97;;;15.91;39.85
65376;BME280;51976;47.332;9.404;2023-03-23T11:42:49;92344.72;;;15.86;40.15
65376;BME280;51976;47.332;9.404;2023-03-23T11:45:25;92349.44;;;15.98;40.09
65376;BME280;51976;47.332;9.404;2023-03-23T11:47:59;92356.31;;;16.04;40.57
65376;BME280;51976;47.332;9.404;2023-03-23T11:50:31;92339.53;;;16.02;40.47
65376;BME280;51976;47.332;9.404;2023-03-23T11:53:15;92316.69;;;15.94;39.87
65376;BME280;51976;47.332;9.404;2023-03-23T11:55:54;92344.31;;;16.05;40.05
65376;BME280;51976;47.332;9.404;2023-03-23T11:58:21;92325.09;;;16.10;40.08
65376;BME280;51976;47.332;9.404;2023-03-23T12:00:55;92334.16;;;16.14;40.89
65376;BME280;51976;47.332;9.404;2023-03-23T12:03:54;92325.13;;;16.51;40.30
65376;BME280;51976;47.332;9.404;2023-03-23T12:06:36;92332.28;;;16.65;39.37
65376;BME280;51976;47.332;9.404;2023-03-23T12:09:34;92300.31;;;16.32;39.78
65376;BME280;51976;47.332;9.404;2023-03-23T12:15:19;92307.53;;;16.49;39.42
65376;BME280;51976;47.332;9.404;2023-03-23T12:18:28;92307.56;;;16.70;39.28
65376;BME280;51976;47.332;9.404;2023-03-23T12:21:05;92303.69;;;16.50;39.32
65376;BME280;51976;47.332;9.404;2023-03-23T12:23:53;92306.16;;;16.43;39.42
65376;BME280;51976;47.332;9.404;2023-03-23T12:26:29;92301.50;;;16.43;39.49
65376;BME280;51976;47.332;9.404;2023-03-23T12:29:25;92296.13;;;16.35;39.38
65376;BME280;51976;47.332;9.404;2023-03-23T12:32:02;92284.00;;;16.32;39.80
65376;BME280;51976;47.332;9.404;2023-03-23T12:34:54;92298.72;;;16.52;39.22
65376;BME280;51976;47.332;9.404;2023-03-23T12:37:49;92290.22;;;16.53;39.24
65376;BME280;51976;47.332;9.404;2023-03-23T12:40:36;92271.81;;;16.38;38.94
65376;BME280;51976;47.332;9.404;2023-03-23T12:43:19;92282.47;;;16.43;38.90
65376;BME280;51976;47.332;9.404;2023-03-23T12:48:42;92278.88;;;16.31;38.86
65376;BME280;51976;47.332;9.404;2023-03-23T12:51:21;92272.78;;;16.54;38.41
65376;BME280;51976;47.332;9.404;2023-03-23T12:54:07;92269.78;;;16.27;38.65
65376;BME280;51976;47.332;9.404;2023-03-23T12:56:42;92265.94;;;16.48;38.92
65376;BME280;51976;47.332;9.404;2023-03-23T12:59:15;92249.47;;;16.45;38.93
65376;BME280;51976;47.332;9.404;2023-03-23T13:01:46;92269.47;;;16.49;39.54
65376;BME280;51976;47.332;9.404;2023-03-23T13:04:16;92265.69;;;16.62;38.75
65376;BME280;51976;47.332;9.404;2023-03-23T13:06:45;92263.50;;;16.55;39.58
65376;BME280;51976;47.332;9.404;2023-03-23T13:09:26;92266.88;;;16.52;39.94
65376;BME280;51976;47.332;9.404;2023-03-23T13:11:55;92244.50;;;16.26;39.61
65376;BME280;51976;47.332;9.404;2023-03-23T13:14:32;92190.78;;;15.81;39.79
65376;BME280;51976;47.332;9.404;2023-03-23T13:17:20;92250.16;;;16.63;39.31
65376;BME280;51976;47.332;9.404;2023-03-23T13:20:16;92264.03;;;16.70;39.15
65376;BME280;51976;47.332;9.404;2023-03-23T13:22:56;92265.75;;;16.74;39.99
65376;BME280;51976;47.332;9.404;2023-03-23T13:25:56;92269.53;;;16.82;40.22
65376;BME280;51976;47.332;9.404;2023-03-23T13:28:33;92260.50;;;16.48;42.14
65376;BME280;51976;47.332;9.404;2023-03-23T13:31:03;92252.94;;;16.12;42.08
65376;BME280;51976;47.332;9.404;2023-03-23T13:33:31;92256.75;;;15.90;42.29